EDT,Max TemperatureF,Mean TemperatureF,Min TemperatureF,Max Dew PointF,MeanDew PointF,Min DewpointF,Max Humidity, Mean Humidity, Min Humidity, Max Sea Level PressureIn, Mean Sea Level PressureIn, Min Sea Level PressureIn, Max VisibilityMiles, Mean VisibilityMiles, Min VisibilityMiles, Max Wind SpeedMPH, Mean Wind SpeedMPH, Max Gust SpeedMPH,PrecipitationIn, CloudCover, Events, WindDirDegrees
2013-5-1,69,56,41,55,46,36,100,75,45,30.29,30.10,29.90,10,9,5,22,10,26,0.00,1,,15
2013-5-2,71,54,37,50,43,36,100,70,46,30.29,30.24,30.19,10,10,7,16,6,21,0.00,1,,8
2013-5-3,69,54,39,43,39,36,93,61,31,30.19,30.16,30.12,10,10,10,23,8,30,0.00,4,,77
2013-5-4,73,60,48,46,43,37,82,52,33,30.16,30.14,30.12,10,10,5,17,9,23,0.00,0,,107
2013-5-5,75,58,42,45,37,25,87,54,16,30.16,30.13,30.08,10,10,10,13,4,,0.00,0,,94
2013-5-6,75,56,37,43,37,28,100,59,18,30.13,30.08,30.03,10,10,10,15,4,18,0.00,0,,333
2013-5-7,77,60,42,43,33,25,87,46,15,30.12,30.07,30.04,10,10,10,16,3,23,0.00,0,,124
2013-5-8,78,63,48,39,33,25,50,32,20,30.06,30.02,29.97,10,10,10,9,4,,0.00,0,,164
2013-5-9,64,53,42,46,40,34,81,59,42,30.08,29.99,29.95,10,10,10,18,7,26,0.00,2,,354
2013-5-10,44,38,33,37,34,32,100,84,61,30.09,30.02,29.93,10,10,8,16,11,22,0.21,8,,34
2013-5-11,50,42,33,41,34,30,100,87,62,29.92,29.76,29.65,10,9,1,23,5,28,0.21,6,,269
2013-5-12,35,32,30,36,31,27,100,91,75,29.99,29.80,29.61,10,6,0,33,19,44,0.14,7,,296
2013-5-13,48,38,28,30,25,18,100,64,34,30.08,30.04,29.98,10,10,10,17,8,26,0.00,0,,296
2013-5-14,53,45,37,39,37,28,93,74,54,30.02,29.86,29.67,10,10,10,25,11,32,0.00,4,,123
2013-5-15,69,55,41,46,39,30,93,61,23,29.72,29.61,29.48,10,9,4,28,15,40,0.13,2,,311
2013-5-16,53,47,41,39,37,36,87,65,54,30.09,29.91,29.72,10,10,10,20,11,29,0.00,0,,315
2013-5-17,64,50,37,41,37,36,100,60,34,30.21,30.17,30.09,10,10,10,17,6,22,0.00,0,,131
2013-5-18,66,55,44,43,39,36,87,57,35,30.23,30.17,30.06,10,10,10,24,10,30,0.00,3,,119
2013-5-19,78,66,53,59,49,41,77,61,47,30.06,29.97,29.88,10,10,10,14,9,17,0.00,5,,138
2013-5-20,64,60,55,59,55,48,100,83,63,29.94,29.87,29.79,10,10,10,32,13,40,0.12,6,Thunderstorm,91
2013-5-21,59,56,53,55,54,52,100,96,88,29.84,29.77,29.72,10,9,2,22,13,30,0.37,8,,93
2013-5-22,57,54,51,55,54,52,100,95,82,29.79,29.74,29.71,10,7,0,16,8,21,0.39,8,,51
2013-5-23,51,45,39,52,36,28,100,75,50,30.25,30.02,29.79,10,10,10,26,15,32,0.44,3,,342
2013-5-24,51,42,32,32,29,27,87,62,44,30.39,30.33,30.26,10,10,10,15,9,22,0.00,1,,338
2013-5-25,60,48,35,36,31,28,100,58,29,30.45,30.37,30.32,10,10,10,20,6,23,0.00,0,,343
2013-5-26,64,50,37,37,30,21,93,48,19,30.39,30.32,30.24,10,10,10,10,4,16,0.00,0,,348
2013-5-27,69,54,39,36,30,27,76,40,21,30.26,30.17,30.05,10,10,10,21,6,26,0.00,0,,132
2013-5-28,55,52,48,52,44,28,100,77,43,30.05,29.91,29.77,10,8,0,22,11,26,0.08,6,,110
2013-5-29,66,58,51,57,54,50,100,91,73,29.94,29.85,29.75,10,7,0,10,5,17,0.01,7,,222
2013-5-30,84,68,53,66,60,52,100,80,48,29.95,29.91,29.86,10,8,0,15,8,22,0.00,4,,148
2013-5-31,75,70,64,66,63,61,94,83,61,29.88,29.81,29.76,10,10,5,15,8,25,0.13,2,Thunderstorm,196